METAR Formatted Surface Weather Observation
Issued by NWS

Home | Current Version | Previous Version | Text Only | Print | Product List | Glossary On
Versions: 1 2 3 4
000
SAUS41 KPHI 222255
MTR12N
METAR K12N 222254Z AUTO 00000KT 01/01 A3022 RMK AO1 SLP244 T00110006



USA.gov is the U.S. government's official web portal to all federal, state and local government web resources and services.